Time;durP1;ratioP1;P1;durP2;ratioP2;P2;SDS_P1;SDS_P2;PMS_P1;PMS_P2;Temp;Humidity;BMP_temperature;BMP_pressure;BME280_temperature;BME280_humidity;BME280_pressure;Samples;Min_cycle;Max_cycle;Signal;HPM_P1;HPM_P2
2022/08/14 00:02:16;;;;;;;4.60;4.20;;;23.20;55.70;;;;;;6170573;23;20240;-89
2022/08/14 00:04:42;;;;;;;5.10;4.60;;;23.30;55.80;;;;;;6169633;23;20189;-88
2022/08/14 00:07:09;;;;;;;5.05;4.55;;;23.20;55.70;;;;;;6209597;22;20676;-89
2022/08/14 00:09:35;;;;;;;4.30;3.90;;;23.30;55.80;;;;;;6256176;22;20560;-88
2022/08/14 00:12:02;;;;;;;4.70;4.30;;;23.30;56.60;;;;;;6255806;22;20148;-88
2022/08/14 00:14:28;;;;;;;4.85;4.45;;;23.20;55.80;;;;;;6255895;22;20235;-88
2022/08/14 00:16:54;;;;;;;5.93;4.70;;;23.30;55.80;;;;;;6256247;22;20587;-89
2022/08/14 00:19:20;;;;;;;4.75;4.30;;;23.20;55.80;;;;;;6255927;22;20148;-88
2022/08/14 00:21:51;;;;;;;4.93;4.43;;;23.20;55.80;;;;;;6256166;22;20171;-88
2022/08/14 00:24:19;;;;;;;4.60;4.10;;;23.20;55.80;;;;;;6281966;22;20244;-88
2022/08/14 00:26:45;;;;;;;4.78;4.38;;;23.20;55.90;;;;;;6255781;22;20164;-88
2022/08/14 00:29:11;;;;;;;4.88;4.38;;;23.20;56.00;;;;;;6251667;22;20588;-89
2022/08/14 00:31:40;;;;;;;5.03;4.53;;;23.20;55.90;;;;;;6190936;23;20154;-88
2022/08/14 00:34:05;;;;;;;5.05;4.55;;;23.30;56.00;;;;;;6191741;23;20217;-88
2022/08/14 00:36:33;;;;;;;4.95;4.50;;;23.20;56.00;;;;;;6165319;23;20593;-88
2022/08/14 00:38:58;;;;;;;4.95;4.45;;;23.20;56.00;;;;;;6190362;23;20601;-89
2022/08/14 00:41:29;;;;;;;5.45;4.95;;;23.20;56.00;;;;;;6165828;23;20161;-88
2022/08/14 00:43:55;;;;;;;4.40;4.00;;;23.20;56.00;;;;;;6190672;23;20138;-89
2022/08/14 00:46:21;;;;;;;5.25;4.75;;;23.20;56.10;;;;;;6165537;23;20182;-88
2022/08/14 00:48:47;;;;;;;4.68;4.28;;;23.20;56.10;;;;;;6165088;23;20154;-89
2022/08/14 00:51:14;;;;;;;4.68;4.25;;;23.20;56.10;;;;;;6166028;23;20162;-89
2022/08/14 00:53:41;;;;;;;4.88;4.38;;;23.20;56.10;;;;;;6165209;23;20729;-88
2022/08/14 00:56:08;;;;;;;5.15;4.65;;;23.20;56.90;;;;;;6190524;23;20142;-89
2022/08/14 00:58:36;;;;;;;4.90;4.50;;;23.20;56.20;;;;;;6165874;23;20220;-88
2022/08/14 01:01:07;;;;;;;5.30;4.80;;;23.20;56.20;;;;;;6190623;23;20213;-88
2022/08/14 01:03:39;;;;;;;5.03;4.50;;;23.20;56.20;;;;;;6246349;22;20160;-88
2022/08/14 01:06:07;;;;;;;5.18;4.68;;;23.10;56.20;;;;;;6227817;22;20179;-89
2022/08/14 01:08:33;;;;;;;4.90;4.50;;;23.10;56.30;;;;;;6226946;22;20198;-88
2022/08/14 01:11:06;;;;;;;5.30;4.80;;;23.10;56.30;;;;;;6226828;22;20141;-88
2022/08/14 01:13:35;;;;;;;4.85;4.45;;;23.10;56.30;;;;;;6227069;22;20144;-89
2022/08/14 01:16:03;;;;;;;5.30;4.80;;;23.10;56.30;;;;;;6251843;22;20150;-89
2022/08/14 01:21:13;;;;;;;4.57;4.18;;;23.10;56.30;;;;;;6254645;22;20140;-88
2022/08/14 01:23:42;;;;;;;4.78;4.35;;;23.10;56.40;;;;;;6227285;22;20195;-88
2022/08/14 01:26:07;;;;;;;4.90;4.50;;;23.10;56.40;;;;;;6227009;22;20192;-88
2022/08/14 01:28:36;;;;;;;5.10;4.60;;;23.10;56.40;;;;;;6251944;22;20152;-88
2022/08/14 01:31:05;;;;;;;5.03;4.50;;;23.10;56.40;;;;;;6227489;22;20141;-88
2022/08/14 01:33:32;;;;;;;5.10;4.60;;;23.10;56.50;;;;;;6226512;22;20151;-88
2022/08/14 01:36:00;;;;;;;4.95;4.45;;;23.10;56.40;;;;;;6226674;22;20144;-88
2022/08/14 01:38:33;;;;;;;4.82;4.32;;;23.10;56.40;;;;;;6227669;22;20214;-88
2022/08/14 01:41:03;;;;;;;4.95;4.50;;;23.10;57.10;;;;;;6253010;22;20167;-88
2022/08/14 01:43:31;;;;;;;4.88;4.47;;;23.10;56.50;;;;;;6251795;22;20171;-88
2022/08/14 01:45:59;;;;;;;4.93;4.53;;;23.10;56.50;;;;;;6226548;22;20233;-88
2022/08/14 01:48:31;;;;;;;4.75;4.35;;;23.10;56.50;;;;;;6226746;22;20140;-89
2022/08/14 01:51:01;;;;;;;5.53;4.95;;;23.00;56.50;;;;;;6228490;22;20151;-88
2022/08/14 01:53:30;;;;;;;4.90;4.50;;;23.10;56.50;;;;;;6252077;22;20160;-89
2022/08/14 01:55:58;;;;;;;5.25;4.75;;;23.00;56.50;;;;;;6252671;22;20140;-88
2022/08/14 01:58:26;;;;;;;4.97;4.53;;;23.10;56.60;;;;;;6227699;22;20149;-89
2022/08/14 02:00:54;;;;;;;5.05;4.55;;;23.10;56.60;;;;;;6227513;22;20288;-88
2022/08/14 02:03:24;;;;;;;5.05;4.57;;;23.00;56.60;;;;;;6227409;22;20172;-88
2022/08/14 02:05:51;;;;;;;5.07;4.68;;;23.10;56.70;;;;;;6226476;22;20741;-89
2022/08/14 02:08:19;;;;;;;4.70;4.30;;;23.10;56.70;;;;;;6251049;22;20468;-88
2022/08/14 02:11:15;;;;;;;4.75;4.28;;;23.10;56.70;;;;;;6251780;22;20236;-88
2022/08/14 02:13:34;;;;;;;5.18;4.68;;;23.00;56.70;;;;;;6276454;22;20202;-88
2022/08/14 02:15:59;;;;;;;5.25;4.75;;;23.00;56.70;;;;;;6226134;22;20535;-88
2022/08/14 02:18:29;;;;;;;5.03;4.38;;;23.00;56.80;;;;;;6276550;22;20159;-88
2022/08/14 02:20:55;;;;;;;4.90;4.40;;;23.00;56.70;;;;;;6276703;22;20129;-88
2022/08/14 02:23:23;;;;;;;5.10;4.60;;;23.00;56.80;;;;;;6225857;22;20153;-88
2022/08/14 02:25:51;;;;;;;4.60;4.20;;;23.00;56.80;;;;;;6256371;22;20195;-88
2022/08/14 02:28:22;;;;;;;5.90;4.90;;;23.00;56.80;;;;;;6232353;22;20189;-88
2022/08/14 02:30:51;;;;;;;5.38;4.78;;;23.00;56.80;;;;;;6283001;22;20625;-88
2022/08/14 02:33:20;;;;;;;5.00;4.60;;;23.00;56.80;;;;;;6231804;22;20148;-88
2022/08/14 02:35:47;;;;;;;5.65;4.57;;;23.00;56.90;;;;;;6231796;22;20147;-88
2022/08/14 02:38:14;;;;;;;5.28;4.78;;;23.00;56.80;;;;;;6256479;22;20149;-89
2022/08/14 02:40:42;;;;;;;5.50;5.00;;;23.00;56.90;;;;;;6256273;22;20602;-88
2022/08/14 02:43:08;;;;;;;5.30;4.80;;;23.00;56.90;;;;;;6231165;22;20148;-89
2022/08/14 02:45:36;;;;;;;4.70;4.28;;;23.00;56.90;;;;;;6231828;22;20548;-88
2022/08/14 02:48:05;;;;;;;5.07;4.60;;;23.00;57.00;;;;;;6231609;22;20145;-89
2022/08/14 02:50:31;;;;;;;4.70;4.20;;;23.00;56.90;;;;;;6229830;22;20608;-88
2022/08/14 02:53:02;;;;;;;5.32;4.65;;;22.90;57.00;;;;;;6231557;22;20152;-89
2022/08/14 02:55:33;;;;;;;4.97;4.47;;;23.00;57.00;;;;;;6256225;22;20136;-88
2022/08/14 02:57:59;;;;;;;4.80;4.40;;;23.00;57.00;;;;;;6230706;22;20148;-88
2022/08/14 03:00:25;;;;;;;5.18;4.68;;;22.90;57.70;;;;;;6230926;22;20183;-89
2022/08/14 03:02:54;;;;;;;4.68;4.28;;;23.00;57.10;;;;;;6231001;22;20183;-88
2022/08/14 03:05:22;;;;;;;4.80;4.40;;;22.90;57.00;;;;;;6231368;22;20172;-89
2022/08/14 03:07:49;;;;;;;5.07;4.57;;;22.90;57.10;;;;;;6232168;22;20175;-88
2022/08/14 03:10:15;;;;;;;5.07;4.57;;;22.90;57.00;;;;;;6256167;22;20219;-88
2022/08/14 03:12:42;;;;;;;4.78;4.38;;;22.90;57.10;;;;;;6230337;22;20136;-89
2022/08/14 03:15:12;;;;;;;4.97;4.53;;;22.90;57.10;;;;;;6255294;22;20150;-89
2022/08/14 03:17:45;;;;;;;5.13;4.63;;;22.90;57.10;;;;;;6281438;22;20522;-88
2022/08/14 03:20:13;;;;;;;5.03;4.47;;;22.90;57.10;;;;;;6230769;22;20560;-88
2022/08/14 03:22:38;;;;;;;4.40;4.00;;;22.90;57.20;;;;;;6230767;22;20148;-88
2022/08/14 03:25:07;;;;;;;5.15;4.65;;;22.90;57.20;;;;;;6231360;22;20275;-88
2022/08/14 03:27:33;;;;;;;4.97;4.47;;;22.90;57.20;;;;;;6258552;22;20152;-88
2022/08/14 03:29:59;;;;;;;4.72;4.32;;;22.90;57.20;;;;;;6233012;22;20219;-88
2022/08/14 03:32:29;;;;;;;4.90;4.40;;;22.90;57.20;;;;;;6257954;22;20140;-88
2022/08/14 03:34:55;;;;;;;4.70;4.30;;;22.90;57.30;;;;;;6234887;22;20144;-88
2022/08/14 03:37:21;;;;;;;5.20;4.70;;;22.90;57.20;;;;;;6258432;22;20167;-88
2022/08/14 03:39:47;;;;;;;5.28;4.78;;;22.90;57.30;;;;;;6233663;22;20143;-89
2022/08/14 03:42:15;;;;;;;5.05;4.55;;;22.90;57.30;;;;;;6283901;22;20133;-88
2022/08/14 03:44:45;;;;;;;5.25;4.70;;;22.90;57.30;;;;;;6233876;22;20143;-88
2022/08/14 03:47:11;;;;;;;4.63;4.18;;;22.90;57.20;;;;;;6258603;22;20606;-89
2022/08/14 03:49:39;;;;;;;4.80;4.40;;;22.90;57.30;;;;;;6258169;22;20148;-88
2022/08/14 03:52:09;;;;;;;4.85;4.43;;;22.90;57.30;;;;;;6233503;22;20140;-89
2022/08/14 03:54:36;;;;;;;4.78;4.30;;;22.90;57.30;;;;;;6234562;22;20140;-88
2022/08/14 03:57:03;;;;;;;4.95;4.45;;;22.90;57.30;;;;;;6258665;22;20135;-88
2022/08/14 03:59:30;;;;;;;4.97;4.47;;;22.90;57.30;;;;;;6232641;22;20151;-88
2022/08/14 04:01:57;;;;;;;4.75;4.35;;;22.90;57.30;;;;;;6233625;22;20226;-89
2022/08/14 04:04:23;;;;;;;5.20;4.70;;;22.90;57.40;;;;;;6233244;22;20193;-89
2022/08/14 04:06:50;;;;;;;4.85;4.45;;;22.90;57.40;;;;;;6258138;22;20595;-88
2022/08/14 04:09:17;;;;;;;4.85;4.35;;;22.90;57.50;;;;;;6233368;22;20171;-88
2022/08/14 04:11:46;;;;;;;5.13;4.63;;;22.90;57.40;;;;;;6258926;22;20140;-88
2022/08/14 04:14:13;;;;;;;4.80;4.40;;;22.90;57.50;;;;;;6258418;22;20478;-88
2022/08/14 04:16:46;;;;;;;4.63;4.22;;;22.90;57.40;;;;;;6234343;22;20144;-89
2022/08/14 04:19:16;;;;;;;4.50;4.10;;;22.90;57.40;;;;;;6236388;22;20183;-89
2022/08/14 04:21:43;;;;;;;4.45;4.05;;;22.90;57.50;;;;;;6235123;22;20227;-88
2022/08/14 04:24:12;;;;;;;4.85;4.45;;;22.90;57.40;;;;;;6232828;22;20219;-89
2022/08/14 04:26:38;;;;;;;5.03;4.53;;;22.90;57.40;;;;;;6234442;22;20230;-88
2022/08/14 04:29:04;;;;;;;5.15;4.65;;;22.90;57.40;;;;;;6233469;22;20144;-89
2022/08/14 04:31:33;;;;;;;4.43;4.03;;;22.90;57.40;;;;;;6233362;22;20140;-88
2022/08/14 04:34:00;;;;;;;4.78;4.38;;;22.90;57.30;;;;;;6233232;22;20148;-89
2022/08/14 04:36:26;;;;;;;4.85;4.40;;;22.90;57.30;;;;;;6232993;22;20563;-89
2022/08/14 04:44:18;;;;;;;4.50;4.10;;;22.90;57.30;;;;;;6264713;22;20136;-89
2022/08/14 04:48:11;;;;;;;4.50;4.10;;;23.00;57.30;;;;;;6257918;22;20187;-89
2022/08/14 04:49:29;;;;;;;4.43;3.88;;;23.00;57.30;;;;;;6266342;22;20144;-88
2022/08/14 04:51:59;;;;;;;4.22;3.92;;;23.00;57.20;;;;;;6232189;22;20213;-88
2022/08/14 04:54:26;;;;;;;5.22;4.55;;;23.00;57.20;;;;;;6233898;22;20636;-88
2022/08/14 04:56:53;;;;;;;4.97;3.97;;;23.00;57.10;;;;;;6257512;22;20167;-88
2022/08/14 04:59:19;;;;;;;4.85;4.35;;;23.00;57.20;;;;;;6233575;22;20147;-88
2022/08/14 05:01:45;;;;;;;4.68;4.28;;;23.00;57.10;;;;;;6233012;22;20231;-89
2022/08/14 05:04:11;;;;;;;4.28;3.88;;;23.00;57.10;;;;;;6232534;22;20144;-89
2022/08/14 05:06:41;;;;;;;4.57;4.18;;;23.00;57.10;;;;;;6232477;22;20175;-89
2022/08/14 05:09:10;;;;;;;4.50;4.10;;;23.10;57.00;;;;;;6257618;22;20480;-89
2022/08/14 05:11:36;;;;;;;4.45;4.05;;;23.10;57.00;;;;;;6257150;22;20436;-88
2022/08/14 05:14:02;;;;;;;4.45;4.03;;;23.10;57.00;;;;;;6231481;22;20136;-88
2022/08/14 05:16:29;;;;;;;4.60;4.20;;;23.20;56.90;;;;;;6257266;22;20148;-88
2022/08/14 05:18:55;;;;;;;4.28;3.88;;;23.20;56.90;;;;;;6257967;22;20216;-88
2022/08/14 05:21:21;;;;;;;4.93;4.43;;;23.10;56.80;;;;;;6231842;22;20174;-88
2022/08/14 05:23:49;;;;;;;4.20;3.80;;;23.20;56.90;;;;;;6231107;22;20148;-87
2022/08/14 05:26:16;;;;;;;4.80;4.40;;;23.10;57.50;;;;;;6226509;22;20193;-88
2022/08/14 05:28:44;;;;;;;4.93;4.47;;;23.20;56.90;;;;;;6252593;22;20182;-88
2022/08/14 05:31:16;;;;;;;4.30;3.90;;;23.20;56.80;;;;;;6189857;23;20150;-88
2022/08/14 05:33:44;;;;;;;4.72;4.32;;;23.10;56.80;;;;;;6166592;23;20485;-88
2022/08/14 05:36:10;;;;;;;4.93;4.43;;;23.20;56.80;;;;;;6164896;23;20177;-88
2022/08/14 05:38:39;;;;;;;4.50;4.10;;;23.20;56.90;;;;;;6164910;23;20146;-88
2022/08/14 05:41:08;;;;;;;4.03;3.67;;;23.20;56.70;;;;;;6189828;23;20154;-88
2022/08/14 05:43:35;;;;;;;4.40;4.00;;;23.20;56.80;;;;;;6164852;23;20246;-88
2022/08/14 05:46:07;;;;;;;4.38;3.97;;;23.30;56.70;;;;;;6165079;23;20223;-88
2022/08/14 05:48:32;;;;;;;4.32;3.92;;;23.30;56.80;;;;;;6165266;23;20563;-88
2022/08/14 05:50:59;;;;;;;4.50;4.10;;;23.20;56.80;;;;;;6164725;23;20156;-88
2022/08/14 05:53:27;;;;;;;4.50;4.10;;;23.30;56.80;;;;;;6165040;23;20197;-88
2022/08/14 05:55:54;;;;;;;4.57;4.18;;;23.20;56.80;;;;;;6164913;23;20616;-88
2022/08/14 05:58:21;;;;;;;4.78;4.38;;;23.20;56.80;;;;;;6189345;23;20134;-89
2022/08/14 06:00:48;;;;;;;4.68;4.20;;;23.30;56.90;;;;;;6189308;23;20138;-88
2022/08/14 06:03:16;;;;;;;4.00;3.70;;;23.30;56.80;;;;;;6248357;22;20159;-88
2022/08/14 06:05:43;;;;;;;4.25;3.88;;;23.30;56.80;;;;;;6250669;22;20157;-88
2022/08/14 06:08:16;;;;;;;4.72;4.15;;;23.20;56.80;;;;;;6225916;22;20558;-89
2022/08/14 06:10:43;;;;;;;4.60;4.20;;;23.30;56.90;;;;;;6226364;22;20182;-88
2022/08/14 06:13:09;;;;;;;4.30;3.90;;;23.30;57.60;;;;;;6250943;22;20157;-88
2022/08/14 06:15:34;;;;;;;4.30;3.90;;;23.30;56.80;;;;;;6225818;22;20198;-88
2022/08/14 06:18:04;;;;;;;4.22;3.85;;;23.30;56.70;;;;;;6225727;22;20612;-88
2022/08/14 06:20:30;;;;;;;4.13;3.72;;;23.30;57.20;;;;;;6251630;22;20203;-88
2022/08/14 06:22:56;;;;;;;4.40;4.00;;;23.40;56.60;;;;;;6226019;22;20145;-88
2022/08/14 06:25:25;;;;;;;4.53;4.13;;;23.30;56.60;;;;;;6230491;22;20191;-88
2022/08/14 06:27:51;;;;;;;5.97;4.13;;;23.40;56.50;;;;;;6255763;22;20140;-88
2022/08/14 06:30:19;;;;;;;4.53;4.13;;;23.40;56.50;;;;;;6231850;22;20151;-88
2022/08/14 06:32:46;;;;;;;4.95;3.90;;;23.40;56.50;;;;;;6255961;22;20139;-88
2022/08/14 06:35:13;;;;;;;4.72;4.30;;;23.40;56.40;;;;;;6230228;22;20164;-88
2022/08/14 06:37:48;;;;;;;4.47;4.07;;;23.40;56.40;;;;;;6231371;22;20144;-88
2022/08/14 06:40:20;;;;;;;4.60;4.20;;;23.50;56.40;;;;;;6231702;22;20151;-88
2022/08/14 06:42:48;;;;;;;4.32;3.92;;;23.50;56.20;;;;;;6232287;22;20602;-89
2022/08/14 06:45:13;;;;;;;4.47;4.07;;;23.50;56.40;;;;;;6230383;22;20203;-88
2022/08/14 06:47:40;;;;;;;4.30;3.90;;;23.40;57.00;;;;;;6255748;22;20156;-88
2022/08/14 06:50:10;;;;;;;4.68;4.22;;;23.40;56.40;;;;;;6230762;22;20136;-88
2022/08/14 06:52:39;;;;;;;4.25;3.88;;;23.50;56.30;;;;;;6256692;22;20564;-88
2022/08/14 06:55:06;;;;;;;4.40;4.00;;;23.50;56.30;;;;;;6257071;22;20127;-88
2022/08/14 06:57:36;;;;;;;4.80;4.40;;;23.50;56.30;;;;;;6230377;22;20186;-88
2022/08/14 07:00:05;;;;;;;4.47;4.07;;;23.50;56.20;;;;;;6257793;22;20125;-89
2022/08/14 07:07:55;;;;;;;4.53;4.13;;;23.60;56.00;;;;;;6286056;22;20556;-89
2022/08/14 07:10:21;;;;;;;4.30;3.90;;;23.70;55.90;;;;;;6258514;22;20147;-88
2022/08/14 07:12:47;;;;;;;4.18;3.83;;;23.70;56.00;;;;;;6282585;22;20203;-88
2022/08/14 07:15:15;;;;;;;4.47;4.07;;;23.60;56.40;;;;;;6232342;22;20607;-88
2022/08/14 07:17:46;;;;;;;4.78;4.28;;;23.50;56.50;;;;;;6232075;22;20136;-87
2022/08/14 07:20:11;;;;;;;4.60;4.10;;;23.40;56.80;;;;;;6232259;22;20136;-88
2022/08/14 07:22:39;;;;;;;4.30;3.90;;;23.40;56.80;;;;;;6232329;22;20167;-88
2022/08/14 07:25:05;;;;;;;4.28;3.88;;;23.50;56.90;;;;;;6232433;22;20183;-88
2022/08/14 07:27:31;;;;;;;3.90;3.60;;;23.50;56.60;;;;;;6232325;22;20148;-89
2022/08/14 07:30:00;;;;;;;4.13;3.72;;;23.50;56.70;;;;;;6231387;22;20146;-88
2022/08/14 07:32:27;;;;;;;3.85;3.55;;;23.50;56.80;;;;;;6220743;23;20167;-88
2022/08/14 07:34:54;;;;;;;4.20;3.80;;;23.50;56.80;;;;;;6220545;23;20600;-88
2022/08/14 07:37:19;;;;;;;4.15;3.78;;;23.50;56.70;;;;;;6170610;23;20235;-88
2022/08/14 07:39:46;;;;;;;4.38;3.97;;;23.50;56.60;;;;;;6170645;23;20715;-89
2022/08/14 07:42:12;;;;;;;4.45;4.05;;;23.60;56.60;;;;;;6171121;23;20142;-88
2022/08/14 07:44:38;;;;;;;3.80;3.50;;;23.50;56.60;;;;;;6170293;23;20138;-89
2022/08/14 07:47:04;;;;;;;4.78;3.80;;;23.60;56.80;;;;;;6195175;23;20172;-88
2022/08/14 07:49:34;;;;;;;4.00;3.70;;;23.60;56.80;;;;;;6170209;23;20150;-88
2022/08/14 07:52:03;;;;;;;4.40;4.00;;;23.60;56.80;;;;;;6170950;23;20219;-88
2022/08/14 07:54:31;;;;;;;3.92;3.53;;;23.70;56.70;;;;;;6220438;23;20156;-88
2022/08/14 07:56:58;;;;;;;4.10;3.80;;;23.70;56.70;;;;;;6195502;23;20141;-88
2022/08/14 07:59:27;;;;;;;3.70;3.40;;;23.70;56.70;;;;;;6195492;23;20150;-88
2022/08/14 08:01:53;;;;;;;3.88;3.47;;;23.70;56.80;;;;;;6195113;23;20154;-88
2022/08/14 08:04:22;;;;;;;3.70;3.40;;;23.70;57.00;;;;;;6173051;23;20168;-89
2022/08/14 08:06:53;;;;;;;3.60;3.30;;;23.60;57.10;;;;;;6198398;23;20694;-89
2022/08/14 08:09:23;;;;;;;3.30;3.00;;;23.60;57.10;;;;;;6173621;23;20157;-88
2022/08/14 08:11:48;;;;;;;3.88;3.47;;;23.70;57.10;;;;;;6172831;23;20168;-88
2022/08/14 08:14:14;;;;;;;4.03;3.67;;;23.60;57.10;;;;;;6196741;23;20574;-89
2022/08/14 08:16:41;;;;;;;4.07;3.67;;;23.80;57.00;;;;;;6213519;22;20156;-89
2022/08/14 08:19:10;;;;;;;3.28;3.08;;;23.70;56.90;;;;;;6257953;22;20142;-88
2022/08/14 08:21:42;;;;;;;3.78;3.47;;;23.70;57.20;;;;;;6233805;22;20158;-88
2022/08/14 08:24:09;;;;;;;3.80;3.50;;;23.80;57.10;;;;;;6232593;22;20147;-88
2022/08/14 08:26:38;;;;;;;3.67;3.38;;;23.80;57.10;;;;;;6257786;22;20190;-88
2022/08/14 08:29:10;;;;;;;3.95;3.65;;;23.80;57.10;;;;;;6232569;22;20147;-88
2022/08/14 08:31:53;;;;;;;3.47;3.17;;;23.80;57.00;;;;;;6284128;22;20578;-88
2022/08/14 08:34:20;;;;;;;3.72;3.42;;;23.80;57.10;;;;;;6233103;22;20148;-88
2022/08/14 08:36:58;;;;;;;3.63;3.33;;;23.90;57.30;;;;;;6231944;22;20140;-88
2022/08/14 08:39:26;;;;;;;4.13;3.72;;;23.90;57.10;;;;;;6232796;22;20136;-88
2022/08/14 08:41:55;;;;;;;4.00;3.70;;;23.90;57.10;;;;;;6233784;22;20144;-88
2022/08/14 08:44:28;;;;;;;3.65;3.35;;;23.90;57.00;;;;;;6232487;22;20151;-88
2022/08/14 08:47:00;;;;;;;3.78;3.47;;;23.90;57.00;;;;;;6232037;22;20499;-88
2022/08/14 08:49:37;;;;;;;3.50;3.20;;;24.00;57.10;;;;;;6258349;22;20560;-88
2022/08/14 08:52:10;;;;;;;4.18;3.78;;;24.00;57.00;;;;;;6258306;22;20586;-88
2022/08/14 08:54:37;;;;;;;3.80;3.50;;;24.00;56.90;;;;;;6256605;22;20152;-88
2022/08/14 08:57:10;;;;;;;3.85;3.55;;;24.00;57.20;;;;;;6225166;22;20198;-88
2022/08/14 08:59:36;;;;;;;3.92;3.63;;;24.00;57.20;;;;;;6225491;22;20530;-88
2022/08/14 09:02:05;;;;;;;3.90;3.58;;;24.00;57.40;;;;;;6225033;22;20190;-88
2022/08/14 09:04:37;;;;;;;4.78;3.47;;;23.90;57.40;;;;;;6225196;22;20144;-88
2022/08/14 09:07:04;;;;;;;3.85;3.28;;;24.00;57.40;;;;;;6224403;22;20230;-89
2022/08/14 09:09:49;;;;;;;3.67;3.38;;;24.00;57.10;;;;;;6225410;22;20167;-88
2022/08/14 09:12:16;;;;;;;3.88;3.55;;;24.00;57.30;;;;;;6228314;22;20165;-88
2022/08/14 09:14:47;;;;;;;3.63;3.13;;;24.00;57.50;;;;;;6223396;22;20172;-88
2022/08/14 09:17:13;;;;;;;3.47;2.90;;;24.10;57.30;;;;;;6225692;22;20490;-88
2022/08/14 09:19:44;;;;;;;3.20;2.88;;;24.00;57.30;;;;;;6224945;22;20145;-88
2022/08/14 09:22:12;;;;;;;3.90;3.25;;;24.10;57.20;;;;;;6223565;22;20159;-88
2022/08/14 09:24:38;;;;;;;3.58;3.25;;;24.10;57.20;;;;;;6225307;22;20239;-88
2022/08/14 09:27:03;;;;;;;3.67;3.38;;;24.10;57.20;;;;;;6219416;23;20616;-88
2022/08/14 09:29:29;;;;;;;3.70;3.17;;;24.10;57.20;;;;;;6194697;23;20563;-89
2022/08/14 09:31:58;;;;;;;3.22;3.00;;;24.10;57.00;;;;;;6170223;23;20149;-88
2022/08/14 09:34:59;;;;;;;3.38;3.08;;;24.10;57.10;;;;;;6169820;23;20133;-88
2022/08/14 09:37:47;;;;;;;4.20;3.80;;;24.10;57.10;;;;;;6130443;23;20502;-88
2022/08/14 09:40:23;;;;;;;3.90;3.60;;;24.20;57.10;;;;;;6129836;23;20166;-88
2022/08/14 09:43:13;;;;;;;3.67;3.30;;;24.10;57.20;;;;;;6129965;23;20155;-88
2022/08/14 09:45:47;;;;;;;3.60;3.30;;;24.10;57.30;;;;;;6154643;23;20174;-88
2022/08/14 09:48:16;;;;;;;3.72;3.42;;;24.10;57.20;;;;;;6130059;23;20186;-88
2022/08/14 09:50:51;;;;;;;3.53;3.22;;;24.10;57.20;;;;;;6131111;23;20215;-88
2022/08/14 09:53:43;;;;;;;3.78;3.47;;;24.20;57.10;;;;;;6155290;23;20151;-89
2022/08/14 09:56:10;;;;;;;3.60;3.30;;;24.10;57.20;;;;;;6130625;23;20148;-88
2022/08/14 09:58:38;;;;;;;3.53;3.22;;;24.10;57.00;;;;;;6156407;23;20154;-88
2022/08/14 10:01:11;;;;;;;3.58;3.28;;;24.20;56.90;;;;;;6189962;23;20146;-89
2022/08/14 10:03:40;;;;;;;4.00;3.40;;;24.20;56.90;;;;;;6214326;23;20203;-88
2022/08/14 10:06:10;;;;;;;3.60;3.30;;;24.10;56.90;;;;;;6189503;23;20176;-88
2022/08/14 10:08:42;;;;;;;3.55;3.25;;;24.10;57.30;;;;;;6259045;22;20147;-88
2022/08/14 10:11:20;;;;;;;3.58;3.28;;;24.10;57.20;;;;;;6231044;22;20190;-88
2022/08/14 10:13:53;;;;;;;3.85;3.45;;;24.10;57.10;;;;;;6257419;22;20128;-88
2022/08/14 10:16:23;;;;;;;3.67;3.38;;;24.10;57.00;;;;;;6232060;22;20144;-88
2022/08/14 10:18:50;;;;;;;3.97;3.33;;;24.10;56.90;;;;;;6257621;22;20132;-89
2022/08/14 10:21:17;;;;;;;3.70;3.40;;;24.20;56.80;;;;;;6257051;22;20132;-88
2022/08/14 10:23:51;;;;;;;3.60;3.30;;;24.20;56.80;;;;;;6231203;22;20564;-88
2022/08/14 10:26:21;;;;;;;3.70;3.40;;;24.10;57.10;;;;;;6257570;22;20189;-89
2022/08/14 10:28:50;;;;;;;3.35;2.92;;;24.10;57.00;;;;;;6230595;22;20150;-88
2022/08/14 10:31:23;;;;;;;3.75;3.45;;;24.10;56.80;;;;;;6231191;22;20144;-88
2022/08/14 10:34:00;;;;;;;4.20;3.80;;;24.20;56.70;;;;;;6232714;22;20222;-88
2022/08/14 10:36:32;;;;;;;3.65;3.35;;;24.20;56.70;;;;;;6196548;23;20185;-89
2022/08/14 10:39:04;;;;;;;3.88;3.50;;;24.20;56.60;;;;;;6191193;23;20154;-88
2022/08/14 10:41:38;;;;;;;3.80;3.50;;;24.30;56.60;;;;;;6166826;23;20264;-88
2022/08/14 10:44:10;;;;;;;3.55;3.25;;;24.30;56.50;;;;;;6166970;23;20149;-88
2022/08/14 10:46:45;;;;;;;3.88;3.50;;;24.30;56.20;;;;;;6150314;23;20619;-88
2022/08/14 10:49:20;;;;;;;3.58;3.28;;;24.30;56.20;;;;;;6126662;23;20163;-88
2022/08/14 10:52:11;;;;;;;3.90;3.60;;;24.20;56.20;;;;;;6151495;23;20151;-88
2022/08/14 10:54:43;;;;;;;4.70;3.63;;;24.20;56.20;;;;;;6151237;23;20136;-88
2022/08/14 10:57:18;;;;;;;3.70;3.40;;;24.20;56.30;;;;;;6152399;23;20600;-88
2022/08/14 10:59:53;;;;;;;3.97;3.67;;;24.20;56.00;;;;;;6126025;23;20166;-88
2022/08/14 11:02:28;;;;;;;3.67;3.38;;;24.20;56.20;;;;;;6124826;23;20151;-88
2022/08/14 11:05:13;;;;;;;3.72;3.42;;;24.30;56.50;;;;;;6068614;23;20181;-88
2022/08/14 11:07:57;;;;;;;3.80;3.50;;;24.20;56.20;;;;;;6044685;23;20632;-88
2022/08/14 11:10:28;;;;;;;3.60;3.30;;;24.20;56.10;;;;;;6044472;23;20489;-88
2022/08/14 11:13:01;;;;;;;3.38;3.08;;;24.20;56.10;;;;;;6045148;23;20239;-88
2022/08/14 11:15:36;;;;;;;3.35;3.05;;;24.20;55.90;;;;;;6044933;23;20162;-89
2022/08/14 11:18:05;;;;;;;3.40;3.15;;;24.20;56.20;;;;;;6041753;23;20160;-89
2022/08/14 11:20:34;;;;;;;3.70;3.40;;;24.30;56.00;;;;;;6091807;23;20155;-88
2022/08/14 11:23:00;;;;;;;3.80;3.50;;;24.30;55.90;;;;;;6138240;23;20151;-88
2022/08/14 11:25:30;;;;;;;3.40;3.10;;;24.30;55.90;;;;;;6135767;23;20246;-88
2022/08/14 11:27:59;;;;;;;3.50;3.20;;;24.30;55.90;;;;;;6137329;23;20159;-88
2022/08/14 11:30:33;;;;;;;3.75;3.45;;;24.30;55.80;;;;;;6076864;23;20183;-88
2022/08/14 11:33:06;;;;;;;3.42;3.13;;;24.30;55.50;;;;;;6102199;23;20178;-88
2022/08/14 11:35:36;;;;;;;3.25;3.00;;;24.40;55.50;;;;;;6155288;23;20477;-88
2022/08/14 11:38:05;;;;;;;3.35;3.08;;;24.40;55.50;;;;;;6143596;23;20174;-89
2022/08/14 11:40:33;;;;;;;3.80;3.50;;;24.40;55.50;;;;;;6078739;23;20175;-87
2022/08/14 11:43:13;;;;;;;3.65;3.35;;;24.40;55.40;;;;;;6050412;23;20157;-88
2022/08/14 11:45:42;;;;;;;3.70;3.40;;;24.30;55.60;;;;;;6072916;23;20191;-88
2022/08/14 11:48:27;;;;;;;3.42;3.13;;;24.40;55.10;;;;;;6073503;23;20167;-88
2022/08/14 11:50:53;;;;;;;3.75;3.45;;;24.50;55.10;;;;;;6073440;23;20177;-88
2022/08/14 11:53:25;;;;;;;3.40;3.10;;;24.40;55.00;;;;;;6096398;23;20529;-88
2022/08/14 11:56:02;;;;;;;3.95;3.22;;;24.40;55.10;;;;;;6065462;23;20157;-89
2022/08/14 11:58:31;;;;;;;3.65;3.35;;;24.40;55.00;;;;;;6044427;23;20187;-88
2022/08/14 12:01:00;;;;;;;3.90;3.60;;;24.40;55.10;;;;;;6067947;23;20159;-87
2022/08/14 12:03:46;;;;;;;3.60;3.20;;;24.40;54.80;;;;;;6130589;23;20151;-88
2022/08/14 12:06:16;;;;;;;3.70;3.40;;;24.40;54.60;;;;;;6159105;23;20325;-88
2022/08/14 12:08:42;;;;;;;3.97;3.10;;;24.50;54.60;;;;;;6136122;23;20162;-88
2022/08/14 12:11:09;;;;;;;3.83;3.30;;;24.50;54.60;;;;;;6160463;23;20143;-88
2022/08/14 12:13:35;;;;;;;3.67;3.38;;;24.50;54.40;;;;;;6161768;22;20507;-88
2022/08/14 12:16:07;;;;;;;3.80;3.40;;;24.50;54.20;;;;;;6201245;22;20140;-88
2022/08/14 12:18:47;;;;;;;3.50;3.28;;;24.50;54.20;;;;;;6196214;23;20686;-87
2022/08/14 12:21:26;;;;;;;3.45;3.15;;;24.50;53.60;;;;;;6197749;23;20468;-88
2022/08/14 12:24:09;;;;;;;4.25;3.35;;;24.50;54.00;;;;;;6172071;23;20145;-88
2022/08/14 12:26:40;;;;;;;5.10;3.42;;;24.50;54.30;;;;;;6198051;22;20192;-88
2022/08/14 12:29:11;;;;;;;3.40;3.10;;;24.40;54.00;;;;;;6226752;22;20149;-88
2022/08/14 12:31:43;;;;;;;3.22;2.90;;;24.50;54.10;;;;;;6220320;23;20153;-88
2022/08/14 12:34:13;;;;;;;4.55;3.35;;;24.40;53.90;;;;;;6172583;23;20576;-87
2022/08/14 12:36:48;;;;;;;3.80;2.90;;;24.50;54.10;;;;;;6106929;23;20167;-88
2022/08/14 12:39:19;;;;;;;3.40;3.10;;;24.50;53.50;;;;;;6107133;23;20167;-88
2022/08/14 12:41:53;;;;;;;3.50;3.20;;;24.50;53.70;;;;;;6106363;23;20161;-88
2022/08/14 12:44:28;;;;;;;3.47;3.17;;;24.50;53.70;;;;;;6107050;23;20155;-88
2022/08/14 12:47:11;;;;;;;3.40;3.10;;;24.50;53.80;;;;;;6106390;23;20175;-88
2022/08/14 12:49:45;;;;;;;3.33;3.05;;;24.50;53.60;;;;;;6155239;23;20157;-88
2022/08/14 12:52:17;;;;;;;3.13;2.92;;;24.50;53.80;;;;;;6049619;23;20195;-88
2022/08/14 12:54:43;;;;;;;3.30;3.10;;;24.50;53.60;;;;;;6049420;23;20141;-88
2022/08/14 12:57:12;;;;;;;3.50;3.20;;;24.50;53.70;;;;;;6072644;23;20231;-88
2022/08/14 12:59:38;;;;;;;3.20;2.97;;;24.60;53.60;;;;;;6049308;23;20184;-88
2022/08/14 13:02:07;;;;;;;3.30;3.00;;;24.50;53.30;;;;;;6040017;23;20157;-88
2022/08/14 13:04:35;;;;;;;3.22;2.92;;;24.60;53.20;;;;;;6015474;23;20229;-88
2022/08/14 13:07:07;;;;;;;3.60;3.30;;;24.60;52.80;;;;;;6015245;23;20225;-88
2022/08/14 13:09:34;;;;;;;3.22;2.60;;;24.60;53.10;;;;;;6081982;23;20160;-87
2022/08/14 13:12:03;;;;;;;3.13;2.92;;;24.60;53.20;;;;;;6096737;23;20530;-87
2022/08/14 13:14:31;;;;;;;3.22;3.00;;;24.60;53.10;;;;;;6072978;23;20232;-87